sensor_id;sensor_type;location;lat;lon;timestamp;pressure;altitude;pressure_sealevel;temperature;humidity
76128;BME280;64873;50.102;14.434;2024-03-02T00:00:57;98266.16;;;8.25;100.00
76128;BME280;64873;50.102;14.434;2024-03-02T00:03:22;98282.66;;;8.34;100.00
76128;BME280;64873;50.102;14.434;2024-03-02T00:05:49;98273.72;;;8.28;100.00
76128;BME280;64873;50.102;14.434;2024-03-02T00:08:22;98285.91;;;8.36;100.00
76128;BME280;64873;50.102;14.434;2024-03-02T00:10:49;98272.31;;;8.25;100.00
76128;BME280;64873;50.102;14.434;2024-03-02T00:13:14;98278.81;;;8.29;100.00
76128;BME280;64873;50.102;14.434;2024-03-02T00:15:47;98285.75;;;8.31;100.00
76128;BME280;64873;50.102;14.434;2024-03-02T00:18:18;98267.44;;;8.22;100.00
76128;BME280;64873;50.102;14.434;2024-03-02T00:20:44;98269.50;;;8.39;100.00
76128;BME280;64873;50.102;14.434;2024-03-02T00:23:14;98276.56;;;8.45;100.00
76128;BME280;64873;50.102;14.434;2024-03-02T00:25:40;98280.50;;;8.42;100.00
76128;BME280;64873;50.102;14.434;2024-03-02T00:28:20;98268.59;;;8.45;100.00
76128;BME280;64873;50.102;14.434;2024-03-02T00:33:32;98277.47;;;8.80;100.00
76128;BME280;64873;50.102;14.434;2024-03-02T00:35:58;98258.00;;;8.80;100.00
76128;BME280;64873;50.102;14.434;2024-03-02T00:38:25;98274.19;;;8.78;100.00
76128;BME280;64873;50.102;14.434;2024-03-02T00:40:51;98276.41;;;8.70;100.00
76128;BME280;64873;50.102;14.434;2024-03-02T00:46:16;98282.53;;;8.70;100.00
76128;BME280;64873;50.102;14.434;2024-03-02T00:49:18;98278.03;;;8.94;100.00
76128;BME280;64873;50.102;14.434;2024-03-02T00:51:47;98275.13;;;8.96;100.00
76128;BME280;64873;50.102;14.434;2024-03-02T00:54:14;98258.94;;;8.86;100.00
76128;BME280;64873;50.102;14.434;2024-03-02T00:56:41;98279.66;;;8.95;100.00
76128;BME280;64873;50.102;14.434;2024-03-02T00:59:07;98276.88;;;8.90;100.00
76128;BME280;64873;50.102;14.434;2024-03-02T01:01:33;98291.84;;;8.49;100.00
76128;BME280;64873;50.102;14.434;2024-03-02T01:03:59;98279.38;;;8.32;100.00
76128;BME280;64873;50.102;14.434;2024-03-02T01:06:25;98281.91;;;8.26;100.00
76128;BME280;64873;50.102;14.434;2024-03-02T01:08:51;98291.41;;;8.22;100.00
76128;BME280;64873;50.102;14.434;2024-03-02T01:11:17;98286.59;;;8.13;100.00
76128;BME280;64873;50.102;14.434;2024-03-02T01:13:44;98283.09;;;8.72;100.00
76128;BME280;64873;50.102;14.434;2024-03-02T01:16:09;98284.66;;;8.92;100.00
76128;BME280;64873;50.102;14.434;2024-03-02T01:18:35;98283.50;;;9.34;100.00
76128;BME280;64873;50.102;14.434;2024-03-02T01:21:00;98275.38;;;9.29;100.00
76128;BME280;64873;50.102;14.434;2024-03-02T01:23:26;98285.78;;;9.43;100.00
76128;BME280;64873;50.102;14.434;2024-03-02T01:25:52;98281.72;;;9.64;100.00
76128;BME280;64873;50.102;14.434;2024-03-02T01:28:18;98280.16;;;9.27;100.00
76128;BME280;64873;50.102;14.434;2024-03-02T01:30:47;98275.94;;;9.31;99.94
76128;BME280;64873;50.102;14.434;2024-03-02T01:33:12;98266.81;;;9.04;99.70
76128;BME280;64873;50.102;14.434;2024-03-02T01:35:38;98280.72;;;9.41;100.00
76128;BME280;64873;50.102;14.434;2024-03-02T01:38:04;98280.28;;;9.21;99.21
76128;BME280;64873;50.102;14.434;2024-03-02T01:40:36;98273.53;;;9.18;99.36
76128;BME280;64873;50.102;14.434;2024-03-02T01:43:02;98289.88;;;9.22;99.05
76128;BME280;64873;50.102;14.434;2024-03-02T01:45:28;98289.63;;;9.23;98.34
76128;BME280;64873;50.102;14.434;2024-03-02T01:47:54;98281.75;;;9.40;98.54
76128;BME280;64873;50.102;14.434;2024-03-02T01:50:27;98265.41;;;9.37;98.01
76128;BME280;64873;50.102;14.434;2024-03-02T01:52:54;98280.47;;;9.31;97.26
76128;BME280;64873;50.102;14.434;2024-03-02T01:55:20;98277.59;;;9.21;96.86
76128;BME280;64873;50.102;14.434;2024-03-02T01:57:46;98271.91;;;8.94;97.34
76128;BME280;64873;50.102;14.434;2024-03-02T02:00:13;98261.50;;;9.04;98.39
76128;BME280;64873;50.102;14.434;2024-03-02T02:02:39;98260.56;;;9.22;98.99
76128;BME280;64873;50.102;14.434;2024-03-02T02:05:04;98259.16;;;9.31;98.97
76128;BME280;64873;50.102;14.434;2024-03-02T02:07:30;98273.41;;;9.25;98.03
76128;BME280;64873;50.102;14.434;2024-03-02T02:09:56;98277.81;;;9.19;97.96
76128;BME280;64873;50.102;14.434;2024-03-02T02:12:22;98273.38;;;9.60;98.87
76128;BME280;64873;50.102;14.434;2024-03-02T02:14:48;98265.19;;;9.78;97.95
76128;BME280;64873;50.102;14.434;2024-03-02T02:17:16;98268.06;;;9.48;96.14
76128;BME280;64873;50.102;14.434;2024-03-02T02:19:42;98257.53;;;9.42;96.77
76128;BME280;64873;50.102;14.434;2024-03-02T02:22:08;98271.91;;;9.41;96.92
76128;BME280;64873;50.102;14.434;2024-03-02T02:24:33;98258.44;;;9.35;97.21
76128;BME280;64873;50.102;14.434;2024-03-02T02:26:59;98237.34;;;9.46;97.62
76128;BME280;64873;50.102;14.434;2024-03-02T02:29:24;98250.19;;;9.49;97.39
76128;BME280;64873;50.102;14.434;2024-03-02T02:31:49;98251.25;;;9.48;97.29
76128;BME280;64873;50.102;14.434;2024-03-02T02:34:15;98269.09;;;9.59;97.19
76128;BME280;64873;50.102;14.434;2024-03-02T02:36:41;98268.50;;;9.69;96.95
76128;BME280;64873;50.102;14.434;2024-03-02T02:39:10;98264.63;;;9.76;96.89
76128;BME280;64873;50.102;14.434;2024-03-02T02:41:37;98249.66;;;9.35;95.29
76128;BME280;64873;50.102;14.434;2024-03-02T02:44:02;98245.94;;;9.13;95.16
76128;BME280;64873;50.102;14.434;2024-03-02T02:46:28;98264.69;;;9.53;96.95
76128;BME280;64873;50.102;14.434;2024-03-02T02:48:54;98264.03;;;9.11;95.94
76128;BME280;64873;50.102;14.434;2024-03-02T02:51:19;98274.34;;;9.07;96.33
76128;BME280;64873;50.102;14.434;2024-03-02T02:53:45;98281.06;;;9.10;97.09
76128;BME280;64873;50.102;14.434;2024-03-02T02:56:10;98270.97;;;9.00;97.06
76128;BME280;64873;50.102;14.434;2024-03-02T02:58:35;98271.88;;;8.70;96.98
76128;BME280;64873;50.102;14.434;2024-03-02T03:01:01;98282.56;;;8.94;97.77
76128;BME280;64873;50.102;14.434;2024-03-02T03:03:27;98274.69;;;8.99;98.06
76128;BME280;64873;50.102;14.434;2024-03-02T03:05:52;98270.53;;;9.03;96.89
76128;BME280;64873;50.102;14.434;2024-03-02T03:08:17;98267.88;;;9.03;96.01
76128;BME280;64873;50.102;14.434;2024-03-02T03:10:43;98260.09;;;9.01;96.96
76128;BME280;64873;50.102;14.434;2024-03-02T03:13:08;98267.75;;;9.21;97.14
76128;BME280;64873;50.102;14.434;2024-03-02T03:15:35;98253.03;;;9.07;95.58
76128;BME280;64873;50.102;14.434;2024-03-02T03:18:02;98239.13;;;9.17;93.90
76128;BME280;64873;50.102;14.434;2024-03-02T03:20:29;98259.97;;;9.20;94.41
76128;BME280;64873;50.102;14.434;2024-03-02T03:22:54;98263.22;;;9.22;95.54
76128;BME280;64873;50.102;14.434;2024-03-02T03:25:19;98255.00;;;9.00;94.79
76128;BME280;64873;50.102;14.434;2024-03-02T03:27:45;98238.88;;;8.83;95.86
76128;BME280;64873;50.102;14.434;2024-03-02T03:30:11;98253.63;;;8.86;94.79
76128;BME280;64873;50.102;14.434;2024-03-02T03:32:37;98248.97;;;8.81;93.71
76128;BME280;64873;50.102;14.434;2024-03-02T03:35:03;98267.59;;;8.69;93.94
76128;BME280;64873;50.102;14.434;2024-03-02T03:37:29;98270.28;;;8.93;92.98
76128;BME280;64873;50.102;14.434;2024-03-02T03:39:58;98258.94;;;8.86;93.26
76128;BME280;64873;50.102;14.434;2024-03-02T03:42:24;98264.97;;;8.93;91.11
76128;BME280;64873;50.102;14.434;2024-03-02T03:44:49;98277.13;;;8.89;90.91
76128;BME280;64873;50.102;14.434;2024-03-02T03:47:15;98260.78;;;8.97;88.94
76128;BME280;64873;50.102;14.434;2024-03-02T03:49:40;98272.81;;;8.76;88.80
76128;BME280;64873;50.102;14.434;2024-03-02T03:52:06;98272.72;;;8.94;89.50
76128;BME280;64873;50.102;14.434;2024-03-02T03:54:31;98266.06;;;8.73;87.67
76128;BME280;64873;50.102;14.434;2024-03-02T03:56:57;98261.22;;;8.70;86.26
76128;BME280;64873;50.102;14.434;2024-03-02T03:59:22;98250.53;;;8.47;87.47
76128;BME280;64873;50.102;14.434;2024-03-02T04:01:47;98277.16;;;8.47;88.53
76128;BME280;64873;50.102;14.434;2024-03-02T04:04:13;98266.06;;;8.73;87.86
76128;BME280;64873;50.102;14.434;2024-03-02T04:06:38;98276.53;;;8.87;88.03
76128;BME280;64873;50.102;14.434;2024-03-02T04:09:04;98259.00;;;8.67;87.09
76128;BME280;64873;50.102;14.434;2024-03-02T04:11:29;98281.13;;;8.56;87.09
76128;BME280;64873;50.102;14.434;2024-03-02T04:13:55;98293.66;;;8.79;86.12
76128;BME280;64873;50.102;14.434;2024-03-02T04:16:21;98286.09;;;8.64;86.56
76128;BME280;64873;50.102;14.434;2024-03-02T04:18:46;98274.91;;;8.74;85.75
76128;BME280;64873;50.102;14.434;2024-03-02T04:21:12;98285.88;;;8.66;85.87
76128;BME280;64873;50.102;14.434;2024-03-02T04:23:37;98285.63;;;8.55;86.99
76128;BME280;64873;50.102;14.434;2024-03-02T04:26:02;98302.16;;;8.46;87.33
76128;BME280;64873;50.102;14.434;2024-03-02T04:28:28;98301.75;;;8.72;86.07
76128;BME280;64873;50.102;14.434;2024-03-02T04:30:53;98299.88;;;8.61;85.69
76128;BME280;64873;50.102;14.434;2024-03-02T04:33:19;98305.94;;;8.80;85.79
76128;BME280;64873;50.102;14.434;2024-03-02T04:35:44;98257.50;;;8.60;87.60
76128;BME280;64873;50.102;14.434;2024-03-02T04:38:09;98307.59;;;8.93;85.26
76128;BME280;64873;50.102;14.434;2024-03-02T04:40:35;98311.97;;;8.75;85.45
76128;BME280;64873;50.102;14.434;2024-03-02T04:43:00;98311.03;;;8.81;86.35
76128;BME280;64873;50.102;14.434;2024-03-02T04:45:25;98320.78;;;8.88;87.12
76128;BME280;64873;50.102;14.434;2024-03-02T04:47:51;98314.59;;;8.64;86.32
76128;BME280;64873;50.102;14.434;2024-03-02T04:50:16;98308.94;;;8.84;84.12
76128;BME280;64873;50.102;14.434;2024-03-02T04:52:42;98318.81;;;8.95;83.76
76128;BME280;64873;50.102;14.434;2024-03-02T04:55:07;98314.38;;;8.77;84.52
76128;BME280;64873;50.102;14.434;2024-03-02T04:57:44;98333.06;;;8.89;84.61
76128;BME280;64873;50.102;14.434;2024-03-02T05:00:11;98326.25;;;8.51;84.33
76128;BME280;64873;50.102;14.434;2024-03-02T05:02:37;98350.28;;;8.74;83.91
76128;BME280;64873;50.102;14.434;2024-03-02T05:05:03;98345.28;;;8.66;83.60
76128;BME280;64873;50.102;14.434;2024-03-02T05:07:28;98342.09;;;8.88;86.31
76128;BME280;64873;50.102;14.434;2024-03-02T05:09:54;98321.19;;;8.73;85.06
76128;BME280;64873;50.102;14.434;2024-03-02T05:12:19;98334.31;;;8.74;83.76
76128;BME280;64873;50.102;14.434;2024-03-02T05:15:03;98324.88;;;8.60;83.41
76128;BME280;64873;50.102;14.434;2024-03-02T05:17:29;98333.19;;;8.52;85.36
76128;BME280;64873;50.102;14.434;2024-03-02T05:19:54;98327.59;;;8.42;85.05
76128;BME280;64873;50.102;14.434;2024-03-02T05:22:19;98336.91;;;8.51;85.04
76128;BME280;64873;50.102;14.434;2024-03-02T05:24:45;98342.38;;;8.56;84.57
76128;BME280;64873;50.102;14.434;2024-03-02T05:27:10;98332.56;;;8.68;85.57
76128;BME280;64873;50.102;14.434;2024-03-02T05:29:35;98354.72;;;8.80;82.81
76128;BME280;64873;50.102;14.434;2024-03-02T05:32:01;98357.75;;;8.96;84.94
76128;BME280;64873;50.102;14.434;2024-03-02T05:34:26;98352.66;;;8.94;85.19
76128;BME280;64873;50.102;14.434;2024-03-02T05:36:52;98372.31;;;8.81;82.99
76128;BME280;64873;50.102;14.434;2024-03-02T05:39:17;98379.84;;;8.85;82.16
76128;BME280;64873;50.102;14.434;2024-03-02T05:41:43;98381.72;;;8.96;81.97
76128;BME280;64873;50.102;14.434;2024-03-02T05:44:08;98367.44;;;8.78;81.38
76128;BME280;64873;50.102;14.434;2024-03-02T05:46:33;98381.47;;;8.86;81.15
76128;BME280;64873;50.102;14.434;2024-03-02T05:48:59;98372.09;;;8.83;83.79
76128;BME280;64873;50.102;14.434;2024-03-02T05:51:25;98386.34;;;8.89;82.43
76128;BME280;64873;50.102;14.434;2024-03-02T05:53:51;98388.06;;;8.83;80.93
76128;BME280;64873;50.102;14.434;2024-03-02T05:56:16;98369.47;;;8.65;81.43
76128;BME280;64873;50.102;14.434;2024-03-02T05:58:41;98373.19;;;8.64;81.32
76128;BME280;64873;50.102;14.434;2024-03-02T06:01:26;98391.41;;;8.78;81.26
76128;BME280;64873;50.102;14.434;2024-03-02T06:03:56;98379.59;;;8.74;80.44
76128;BME280;64873;50.102;14.434;2024-03-02T06:06:25;98404.03;;;8.83;80.89
76128;BME280;64873;50.102;14.434;2024-03-02T06:08:51;98395.75;;;8.61;81.63
76128;BME280;64873;50.102;14.434;2024-03-02T06:11:17;98402.25;;;8.65;82.61
76128;BME280;64873;50.102;14.434;2024-03-02T06:13:42;98402.16;;;8.72;81.99
76128;BME280;64873;50.102;14.434;2024-03-02T06:16:08;98395.59;;;8.74;80.45
76128;BME280;64873;50.102;14.434;2024-03-02T06:18:34;98403.72;;;8.61;81.99
76128;BME280;64873;50.102;14.434;2024-03-02T06:20:59;98389.34;;;8.50;82.82
76128;BME280;64873;50.102;14.434;2024-03-02T06:23:26;98387.63;;;8.56;82.41
76128;BME280;64873;50.102;14.434;2024-03-02T06:25:52;98388.16;;;8.76;82.26
76128;BME280;64873;50.102;14.434;2024-03-02T06:28:17;98407.84;;;8.75;81.61
76128;BME280;64873;50.102;14.434;2024-03-02T06:30:43;98405.94;;;8.94;79.85
76128;BME280;64873;50.102;14.434;2024-03-02T06:33:09;98413.78;;;8.89;80.81
76128;BME280;64873;50.102;14.434;2024-03-02T06:35:34;98409.81;;;8.68;79.54
76128;BME280;64873;50.102;14.434;2024-03-02T06:38:00;98414.59;;;8.90;81.97
76128;BME280;64873;50.102;14.434;2024-03-02T06:40:26;98402.31;;;8.89;79.53
76128;BME280;64873;50.102;14.434;2024-03-02T06:42:51;98419.56;;;9.16;79.44
76128;BME280;64873;50.102;14.434;2024-03-02T06:45:17;98417.13;;;8.85;79.44
76128;BME280;64873;50.102;14.434;2024-03-02T06:47:42;98401.81;;;8.68;81.38
76128;BME280;64873;50.102;14.434;2024-03-02T06:50:08;98421.06;;;8.82;80.24
76128;BME280;64873;50.102;14.434;2024-03-02T06:52:34;98427.28;;;9.06;78.26
76128;BME280;64873;50.102;14.434;2024-03-02T06:55:00;98428.13;;;9.18;77.91
76128;BME280;64873;50.102;14.434;2024-03-02T06:57:25;98431.72;;;9.12;78.24
76128;BME280;64873;50.102;14.434;2024-03-02T06:59:51;98426.13;;;9.02;78.68
76128;BME280;64873;50.102;14.434;2024-03-02T07:02:19;98429.69;;;8.96;80.40
76128;BME280;64873;50.102;14.434;2024-03-02T07:04:45;98428.06;;;8.95;80.50
76128;BME280;64873;50.102;14.434;2024-03-02T07:07:10;98444.53;;;8.92;78.42
76128;BME280;64873;50.102;14.434;2024-03-02T07:09:36;98443.06;;;9.19;77.84
76128;BME280;64873;50.102;14.434;2024-03-02T07:12:01;98437.06;;;9.24;76.91
76128;BME280;64873;50.102;14.434;2024-03-02T07:14:27;98442.16;;;8.84;78.84
76128;BME280;64873;50.102;14.434;2024-03-02T07:17:12;98456.97;;;9.10;77.85
76128;BME280;64873;50.102;14.434;2024-03-02T07:19:38;98451.59;;;8.98;77.83
76128;BME280;64873;50.102;14.434;2024-03-02T07:22:06;98459.75;;;8.85;79.23
76128;BME280;64873;50.102;14.434;2024-03-02T07:24:39;98466.34;;;9.12;78.74
76128;BME280;64873;50.102;14.434;2024-03-02T07:27:04;98461.72;;;9.19;77.26
76128;BME280;64873;50.102;14.434;2024-03-02T07:29:30;98452.19;;;9.00;78.14
76128;BME280;64873;50.102;14.434;2024-03-02T07:31:56;98462.97;;;9.05;78.53
76128;BME280;64873;50.102;14.434;2024-03-02T07:34:21;98465.38;;;8.95;78.74
76128;BME280;64873;50.102;14.434;2024-03-02T07:36:46;98472.41;;;9.19;77.00
76128;BME280;64873;50.102;14.434;2024-03-02T07:39:12;98474.22;;;9.07;77.61
76128;BME280;64873;50.102;14.434;2024-03-02T07:41:37;98485.16;;;8.87;79.28
76128;BME280;64873;50.102;14.434;2024-03-02T07:44:03;98470.97;;;9.05;78.31
76128;BME280;64873;50.102;14.434;2024-03-02T07:46:29;98479.28;;;9.27;79.08
76128;BME280;64873;50.102;14.434;2024-03-02T07:48:54;98473.13;;;9.26;78.08
76128;BME280;64873;50.102;14.434;2024-03-02T07:51:19;98466.16;;;9.25;77.34
76128;BME280;64873;50.102;14.434;2024-03-02T07:53:45;98465.00;;;9.21;77.69
76128;BME280;64873;50.102;14.434;2024-03-02T07:56:10;98448.88;;;9.16;77.74
76128;BME280;64873;50.102;14.434;2024-03-02T07:58:36;98451.22;;;9.24;76.55
76128;BME280;64873;50.102;14.434;2024-03-02T08:01:02;98463.66;;;9.54;77.67
76128;BME280;64873;50.102;14.434;2024-03-02T08:03:27;98459.41;;;9.65;76.74
76128;BME280;64873;50.102;14.434;2024-03-02T08:05:53;98460.47;;;9.87;77.03
76128;BME280;64873;50.102;14.434;2024-03-02T08:08:18;98459.16;;;10.01;77.16
76128;BME280;64873;50.102;14.434;2024-03-02T08:10:44;98466.47;;;9.82;76.55
76128;BME280;64873;50.102;14.434;2024-03-02T08:13:09;98468.91;;;10.07;75.42
76128;BME280;64873;50.102;14.434;2024-03-02T08:15:34;98445.69;;;9.96;75.42
76128;BME280;64873;50.102;14.434;2024-03-02T08:18:01;98458.34;;;9.77;76.17
76128;BME280;64873;50.102;14.434;2024-03-02T08:20:26;98482.03;;;10.09;75.01
76128;BME280;64873;50.102;14.434;2024-03-02T08:22:52;98468.59;;;9.80;76.64
76128;BME280;64873;50.102;14.434;2024-03-02T08:25:20;98463.25;;;9.92;75.96
76128;BME280;64873;50.102;14.434;2024-03-02T08:27:45;98471.38;;;10.09;75.71
76128;BME280;64873;50.102;14.434;2024-03-02T08:30:11;98478.31;;;9.63;76.18
76128;BME280;64873;50.102;14.434;2024-03-02T08:32:37;98482.03;;;10.09;75.49
76128;BME280;64873;50.102;14.434;2024-03-02T08:35:03;98474.13;;;10.37;74.76
76128;BME280;64873;50.102;14.434;2024-03-02T08:37:29;98476.91;;;10.19;75.70
76128;BME280;64873;50.102;14.434;2024-03-02T08:39:55;98479.94;;;10.11;74.26
76128;BME280;64873;50.102;14.434;2024-03-02T08:42:20;98482.72;;;10.16;76.17
76128;BME280;64873;50.102;14.434;2024-03-02T08:44:47;98487.03;;;10.05;74.58
76128;BME280;64873;50.102;14.434;2024-03-02T08:47:13;98491.66;;;9.98;74.17
76128;BME280;64873;50.102;14.434;2024-03-02T08:49:38;98490.13;;;10.14;74.41
76128;BME280;64873;50.102;14.434;2024-03-02T08:52:04;98488.06;;;10.39;75.85
76128;BME280;64873;50.102;14.434;2024-03-02T08:54:29;98492.53;;;10.74;74.18
76128;BME280;64873;50.102;14.434;2024-03-02T08:56:55;98486.38;;;11.02;71.28
76128;BME280;64873;50.102;14.434;2024-03-02T08:59:20;98484.69;;;10.84;72.31
76128;BME280;64873;50.102;14.434;2024-03-02T09:01:46;98490.50;;;10.93;70.96
76128;BME280;64873;50.102;14.434;2024-03-02T09:04:11;98476.03;;;10.65;71.59
76128;BME280;64873;50.102;14.434;2024-03-02T09:06:36;98483.25;;;10.65;71.18
76128;BME280;64873;50.102;14.434;2024-03-02T09:09:02;98473.53;;;10.47;71.58
76128;BME280;64873;50.102;14.434;2024-03-02T09:11:28;98483.44;;;10.35;72.26
76128;BME280;64873;50.102;14.434;2024-03-02T09:13:53;98485.84;;;10.01;73.02
76128;BME280;64873;50.102;14.434;2024-03-02T09:16:21;98488.78;;;10.23;72.26
76128;BME280;64873;50.102;14.434;2024-03-02T09:18:46;98488.88;;;10.17;72.58
76128;BME280;64873;50.102;14.434;2024-03-02T09:21:12;98488.19;;;9.74;73.71
76128;BME280;64873;50.102;14.434;2024-03-02T09:23:38;98484.91;;;10.19;72.12
76128;BME280;64873;50.102;14.434;2024-03-02T09:26:05;98488.06;;;10.39;72.45
76128;BME280;64873;50.102;14.434;2024-03-02T09:28:30;98487.53;;;10.66;70.66
76128;BME280;64873;50.102;14.434;2024-03-02T09:30:56;98489.56;;;10.87;70.17
76128;BME280;64873;50.102;14.434;2024-03-02T09:33:21;98486.25;;;10.80;69.33
76128;BME280;64873;50.102;14.434;2024-03-02T09:35:47;98479.00;;;10.40;71.58
76128;BME280;64873;50.102;14.434;2024-03-02T09:38:14;98485.13;;;10.53;70.32
76128;BME280;64873;50.102;14.434;2024-03-02T09:40:41;98494.34;;;10.85;69.50
76128;BME280;64873;50.102;14.434;2024-03-02T09:43:07;98476.78;;;10.89;69.56
76128;BME280;64873;50.102;14.434;2024-03-02T09:45:32;98475.66;;;10.85;69.15
76128;BME280;64873;50.102;14.434;2024-03-02T09:47:58;98490.75;;;11.54;66.17
76128;BME280;64873;50.102;14.434;2024-03-02T09:50:24;98476.81;;;11.06;67.73
76128;BME280;64873;50.102;14.434;2024-03-02T09:52:50;98462.34;;;10.90;67.48
76128;BME280;64873;50.102;14.434;2024-03-02T09:55:16;98475.06;;;10.83;68.60
76128;BME280;64873;50.102;14.434;2024-03-02T09:57:45;98472.81;;;10.63;68.69
76128;BME280;64873;50.102;14.434;2024-03-02T10:00:11;98477.25;;;10.46;69.49
76128;BME280;64873;50.102;14.434;2024-03-02T10:02:40;98474.00;;;10.84;69.25
76128;BME280;64873;50.102;14.434;2024-03-02T10:05:07;98470.28;;;11.14;68.99
76128;BME280;64873;50.102;14.434;2024-03-02T10:07:32;98468.28;;;10.64;69.68
76128;BME280;64873;50.102;14.434;2024-03-02T10:09:58;98459.19;;;10.65;70.69
76128;BME280;64873;50.102;14.434;2024-03-02T10:12:37;98466.84;;;11.02;69.01
76128;BME280;64873;50.102;14.434;2024-03-02T10:15:05;98470.84;;;10.59;69.64
76128;BME280;64873;50.102;14.434;2024-03-02T10:17:31;98481.94;;;10.79;71.79
76128;BME280;64873;50.102;14.434;2024-03-02T10:19:57;98466.19;;;10.94;69.41
76128;BME280;64873;50.102;14.434;2024-03-02T10:22:23;98465.56;;;11.50;68.17
76128;BME280;64873;50.102;14.434;2024-03-02T10:24:48;98485.56;;;10.73;69.04
76128;BME280;64873;50.102;14.434;2024-03-02T10:27:27;98474.91;;;10.61;69.47
76128;BME280;64873;50.102;14.434;2024-03-02T10:29:54;98478.19;;;10.52;69.76
76128;BME280;64873;50.102;14.434;2024-03-02T10:32:22;98471.19;;;11.19;68.10
76128;BME280;64873;50.102;14.434;2024-03-02T10:34:47;98485.75;;;11.12;67.96
76128;BME280;64873;50.102;14.434;2024-03-02T10:37:13;98471.63;;;11.00;68.13
76128;BME280;64873;50.102;14.434;2024-03-02T10:39:40;98473.91;;;11.08;67.74
76128;BME280;64873;50.102;14.434;2024-03-02T10:42:06;98467.69;;;10.90;69.27
76128;BME280;64873;50.102;14.434;2024-03-02T10:44:32;98461.22;;;10.46;69.94
76128;BME280;64873;50.102;14.434;2024-03-02T10:47:02;98451.88;;;10.60;69.23
76128;BME280;64873;50.102;14.434;2024-03-02T10:49:29;98464.53;;;10.65;69.33
76128;BME280;64873;50.102;14.434;2024-03-02T10:51:55;98455.16;;;11.36;66.73
76128;BME280;64873;50.102;14.434;2024-03-02T10:54:21;98459.56;;;11.76;65.34
76128;BME280;64873;50.102;14.434;2024-03-02T10:56:52;98429.19;;;11.03;66.65
76128;BME280;64873;50.102;14.434;2024-03-02T10:59:32;98448.28;;;10.66;68.73
76128;BME280;64873;50.102;14.434;2024-03-02T11:02:00;98451.56;;;10.57;69.24
76128;BME280;64873;50.102;14.434;2024-03-02T11:04:27;98448.91;;;10.57;69.76
76128;BME280;64873;50.102;14.434;2024-03-02T11:06:59;98442.38;;;10.64;69.93
76128;BME280;64873;50.102;14.434;2024-03-02T11:09:27;98451.75;;;11.24;67.61
76128;BME280;64873;50.102;14.434;2024-03-02T11:12:31;98446.66;;;10.94;68.32
76128;BME280;64873;50.102;14.434;2024-03-02T11:15:00;98447.34;;;11.18;68.11
76128;BME280;64873;50.102;14.434;2024-03-02T11:17:28;98444.84;;;11.11;68.52
76128;BME280;64873;50.102;14.434;2024-03-02T11:19:54;98438.69;;;11.11;68.81
76128;BME280;64873;50.102;14.434;2024-03-02T11:22:20;98437.28;;;10.91;68.15
76128;BME280;64873;50.102;14.434;2024-03-02T11:24:50;98423.72;;;10.81;68.47
76128;BME280;64873;50.102;14.434;2024-03-02T11:33:05;98421.38;;;11.47;66.96
76128;BME280;64873;50.102;14.434;2024-03-02T11:38:01;98404.69;;;10.94;67.86
76128;BME280;64873;50.102;14.434;2024-03-02T11:40:28;98421.06;;;11.43;66.81
76128;BME280;64873;50.102;14.434;2024-03-02T11:42:54;98408.53;;;11.66;66.17
76128;BME280;64873;50.102;14.434;2024-03-02T11:45:24;98422.56;;;11.90;65.00
76128;BME280;64873;50.102;14.434;2024-03-02T11:47:50;98406.47;;;12.07;64.16
76128;BME280;64873;50.102;14.434;2024-03-02T11:50:33;98403.44;;;12.42;63.22
76128;BME280;64873;50.102;14.434;2024-03-02T11:53:00;98414.78;;;12.27;62.75
76128;BME280;64873;50.102;14.434;2024-03-02T11:55:26;98408.94;;;11.74;65.00
76128;BME280;64873;50.102;14.434;2024-03-02T11:57:55;98406.53;;;11.73;65.61
76128;BME280;64873;50.102;14.434;2024-03-02T12:00:20;98397.03;;;11.48;65.31
76128;BME280;64873;50.102;14.434;2024-03-02T12:02:47;98392.09;;;11.40;65.79
76128;BME280;64873;50.102;14.434;2024-03-02T12:05:22;98417.88;;;11.80;65.27
76128;BME280;64873;50.102;14.434;2024-03-02T12:07:48;98409.47;;;11.38;65.68
76128;BME280;64873;50.102;14.434;2024-03-02T12:10:14;98406.94;;;11.82;64.46
76128;BME280;64873;50.102;14.434;2024-03-02T12:12:40;98401.81;;;11.80;63.69
76128;BME280;64873;50.102;14.434;2024-03-02T12:15:06;98403.44;;;11.47;64.92
76128;BME280;64873;50.102;14.434;2024-03-02T12:17:31;98402.81;;;11.40;65.39
76128;BME280;64873;50.102;14.434;2024-03-02T12:19:57;98414.94;;;11.65;65.03
76128;BME280;64873;50.102;14.434;2024-03-02T12:22:22;98405.41;;;11.35;65.45
76128;BME280;64873;50.102;14.434;2024-03-02T12:24:48;98418.03;;;11.40;65.60
76128;BME280;64873;50.102;14.434;2024-03-02T12:27:15;98413.97;;;11.71;66.63
76128;BME280;64873;50.102;14.434;2024-03-02T12:29:41;98402.88;;;11.45;65.09
76128;BME280;64873;50.102;14.434;2024-03-02T12:32:06;98413.75;;;11.56;66.05
76128;BME280;64873;50.102;14.434;2024-03-02T12:34:32;98409.59;;;11.65;64.43
76128;BME280;64873;50.102;14.434;2024-03-02T12:36:58;98410.03;;;11.40;65.50
76128;BME280;64873;50.102;14.434;2024-03-02T12:39:23;98419.03;;;11.51;65.00
76128;BME280;64873;50.102;14.434;2024-03-02T12:41:50;98408.50;;;11.44;65.27
76128;BME280;64873;50.102;14.434;2024-03-02T12:44:20;98377.47;;;11.65;66.19
76128;BME280;64873;50.102;14.434;2024-03-02T12:46:46;98420.78;;;11.79;64.15
76128;BME280;64873;50.102;14.434;2024-03-02T12:49:16;98402.69;;;12.03;64.32
76128;BME280;64873;50.102;14.434;2024-03-02T12:51:42;98403.34;;;11.59;64.76
76128;BME280;64873;50.102;14.434;2024-03-02T12:54:08;98395.03;;;11.56;65.19
76128;BME280;64873;50.102;14.434;2024-03-02T12:56:35;98390.59;;;12.00;64.60
76128;BME280;64873;50.102;14.434;2024-03-02T12:59:01;98388.94;;;12.16;62.99
76128;BME280;64873;50.102;14.434;2024-03-02T13:01:30;98391.16;;;12.68;62.32
76128;BME280;64873;50.102;14.434;2024-03-02T13:03:58;98390.28;;;11.96;63.47
76128;BME280;64873;50.102;14.434;2024-03-02T13:06:29;98397.25;;;12.19;63.20